createdAt,value
2018-06-18T00:02:20.996Z,3.50
2018-06-18T00:04:51.446Z,3.00
2018-06-18T00:07:22.223Z,2.00
2018-06-18T00:09:53.897Z,2.75
2018-06-18T00:12:24.489Z,2.50
2018-06-18T00:14:56.287Z,3.00
2018-06-18T00:17:27.478Z,2.25
2018-06-18T00:19:58.772Z,3.00
2018-06-18T00:22:31.350Z,3.00
2018-06-18T00:25:01.834Z,3.00
2018-06-18T00:27:33.330Z,3.00
2018-06-18T00:30:07.180Z,4.00
2018-06-18T00:32:38.948Z,2.00
2018-06-18T00:35:10.509Z,2.00
2018-06-18T00:37:41.033Z,2.25
2018-06-18T00:40:13.499Z,2.75
2018-06-18T00:42:43.847Z,2.00
2018-06-18T00:45:17.454Z,2.75
2018-06-18T00:47:48.725Z,3.00
2018-06-18T00:50:19.345Z,2.00
2018-06-18T00:52:51.876Z,2.00
2018-06-18T00:55:33.679Z,2.75
2018-06-18T00:58:04.313Z,3.00
2018-06-18T01:00:35.142Z,3.00
2018-06-18T01:03:07.101Z,2.75
2018-06-18T01:05:39.035Z,2.50
2018-06-18T01:08:09.836Z,3.00
2018-06-18T01:10:46.668Z,2.25
2018-06-18T01:13:19.392Z,3.00
2018-06-18T01:15:49.912Z,3.50
2018-06-18T01:18:21.641Z,3.25
2018-06-18T01:20:54.068Z,2.75
2018-06-18T01:23:42.624Z,2.00
2018-06-18T01:26:14.334Z,3.00
2018-06-18T01:28:45.683Z,3.00
2018-06-18T01:31:16.227Z,3.00
2018-06-18T01:33:46.964Z,4.00
2018-06-18T01:36:18.782Z,4.00
2018-06-18T01:38:49.621Z,3.00
2018-06-18T01:41:21.013Z,3.00
2018-06-18T01:43:51.452Z,3.00
2018-06-18T01:46:22.200Z,3.50
2018-06-18T01:48:53.010Z,3.00
2018-06-18T01:51:23.470Z,3.50
2018-06-18T01:53:54.542Z,3.50
2018-06-18T01:56:30.962Z,3.75
2018-06-18T01:59:05.372Z,4.00
2018-06-18T02:01:39.524Z,4.00
2018-06-18T02:04:12.289Z,5.00
2018-06-18T02:06:42.995Z,5.00
2018-06-18T02:09:14.915Z,4.50
2018-06-18T02:11:47.308Z,4.75
2018-06-18T02:14:18.264Z,4.75
2018-06-18T02:16:55.686Z,4.75
2018-06-18T02:19:26.811Z,5.00
2018-06-18T02:22:03.262Z,4.00
2018-06-18T02:24:34.686Z,6.00
2018-06-18T02:27:19.490Z,6.00
2018-06-18T02:33:14.425Z,6.00
2018-06-18T02:35:51.080Z,5.75
2018-06-18T02:38:29.603Z,5.75
2018-06-18T02:41:08.761Z,5.25
2018-06-18T02:43:39.069Z,5.00
2018-06-18T02:46:10.464Z,5.00
2018-06-18T02:48:42.359Z,5.50
2018-06-18T02:51:12.791Z,5.50
2018-06-18T02:53:53.732Z,6.75
2018-06-18T02:56:33.029Z,7.75
2018-06-18T02:59:10.314Z,7.25
2018-06-18T03:01:53.121Z,5.75
2018-06-18T03:04:24.187Z,6.25
2018-06-18T03:06:57.996Z,7.50
2018-06-18T03:09:30.863Z,5.75
2018-06-18T03:12:04.053Z,8.00
2018-06-18T03:14:34.481Z,8.00
2018-06-18T03:17:07.438Z,7.50
2018-06-18T03:19:48.897Z,7.75
2018-06-18T03:22:24.697Z,7.75
2018-06-18T03:25:02.167Z,8.25
2018-06-18T03:27:37.785Z,7.75
2018-06-18T03:30:08.611Z,8.50
2018-06-18T03:32:39.552Z,5.50
2018-06-18T03:35:09.935Z,8.25
2018-06-18T03:37:47.444Z,7.25
2018-06-18T03:40:19.943Z,6.00
2018-06-18T03:42:50.352Z,7.75
2018-06-18T03:45:26.790Z,7.50
2018-06-18T03:48:01.371Z,7.50
2018-06-18T03:50:31.841Z,6.25
2018-06-18T03:53:03.731Z,7.75
2018-06-18T03:55:48.259Z,6.50
2018-06-18T03:58:19.807Z,8.50
2018-06-18T04:03:25.855Z,7.50
2018-06-18T04:08:04.670Z,9.00
2018-06-18T04:10:47.070Z,8.00
2018-06-18T04:13:24.895Z,8.00
2018-06-18T04:15:56.748Z,7.00
2018-06-18T04:18:28.885Z,7.75
2018-06-18T04:23:41.601Z,8.00
2018-06-18T04:26:20.545Z,8.00
2018-06-18T04:28:55.845Z,7.00
2018-06-18T04:31:27.560Z,6.00
2018-06-18T04:34:18.721Z,7.75
2018-06-18T04:36:49.079Z,7.75
2018-06-18T04:39:23.753Z,9.25
2018-06-18T04:42:02.959Z,6.25
2018-06-18T04:44:39.755Z,9.00
2018-06-18T04:47:16.083Z,7.75
2018-06-18T04:49:58.115Z,7.25
2018-06-18T04:52:33.856Z,6.75
2018-06-18T04:55:04.324Z,7.75
2018-06-18T04:57:39.629Z,7.25
2018-06-18T05:00:25.042Z,8.50
2018-06-18T05:02:58.468Z,6.00
2018-06-18T05:05:31.906Z,7.50
2018-06-18T05:08:53.135Z,7.25
2018-06-18T05:11:25.277Z,7.75
2018-06-18T05:13:56.338Z,6.00
2018-06-18T05:16:27.865Z,7.50
2018-06-18T05:18:59.783Z,7.00
2018-06-18T05:21:31.073Z,6.25
2018-06-18T05:24:03.805Z,6.50
2018-06-18T05:26:38.782Z,7.50
2018-06-18T05:31:53.356Z,6.50
2018-06-18T05:34:26.108Z,6.50
2018-06-18T05:36:58.890Z,5.75
2018-06-18T05:39:29.272Z,7.00
2018-06-18T05:42:02.618Z,7.00
2018-06-18T05:44:37.503Z,7.00
2018-06-18T05:47:08.744Z,6.75
2018-06-18T05:49:41.013Z,6.75
2018-06-18T05:52:12.100Z,6.00
2018-06-18T05:54:42.545Z,7.50
2018-06-18T05:57:14.231Z,6.75
2018-06-18T05:59:52.169Z,6.50
2018-06-18T06:02:27.693Z,6.50
2018-06-18T06:04:58.595Z,6.00
2018-06-18T06:10:27.130Z,6.50
2018-06-18T06:12:58.231Z,7.75
2018-06-18T06:15:29.846Z,6.75
2018-06-18T06:18:00.446Z,7.00
2018-06-18T06:20:31.524Z,6.00
2018-06-18T06:25:39.826Z,7.00
2018-06-18T06:28:16.899Z,6.50
2018-06-18T06:30:55.106Z,6.75
2018-06-18T06:33:28.064Z,7.00
2018-06-18T06:36:02.853Z,6.25
2018-06-18T06:38:35.368Z,4.75
2018-06-18T06:41:09.098Z,6.00
2018-06-18T06:43:42.793Z,7.00
2018-06-18T06:46:14.812Z,6.75
2018-06-18T06:49:00.643Z,7.00
2018-06-18T06:51:31.614Z,5.25
2018-06-18T06:54:02.594Z,6.25
2018-06-18T06:56:33.457Z,6.25
2018-06-18T06:59:03.999Z,5.75
2018-06-18T07:01:35.616Z,6.00
2018-06-18T07:04:06.527Z,6.50
2018-06-18T07:06:36.976Z,6.00
2018-06-18T07:09:13.404Z,5.00
2018-06-18T07:11:45.917Z,5.75
2018-06-18T07:14:16.816Z,5.75
2018-06-18T07:16:52.065Z,5.75
2018-06-18T07:19:24.618Z,6.00
2018-06-18T07:21:59.575Z,4.00
2018-06-18T07:24:31.957Z,4.00
2018-06-18T07:27:03.102Z,5.00
2018-06-18T07:29:33.541Z,5.00
2018-06-18T07:32:08.401Z,5.25
2018-06-18T07:34:40.662Z,4.75
2018-06-18T07:37:16.700Z,5.50
2018-06-18T07:39:47.046Z,4.75
2018-06-18T07:42:18.721Z,5.00
2018-06-18T07:44:50.043Z,4.50
2018-06-18T07:47:26.614Z,4.00
2018-06-18T07:50:00.057Z,5.00
2018-06-18T07:52:33.012Z,4.00
2018-06-18T07:55:05.551Z,5.00
2018-06-18T07:57:37.582Z,5.00
2018-06-18T08:00:10.107Z,5.00
2018-06-18T08:02:45.463Z,6.25
2018-06-18T08:05:27.582Z,6.00
2018-06-18T08:07:59.746Z,4.25
2018-06-18T08:10:31.212Z,4.25
2018-06-18T08:13:08.961Z,4.50
2018-06-18T08:15:44.714Z,4.00
2018-06-18T08:18:22.910Z,4.00
2018-06-18T08:20:59.083Z,5.00
2018-06-18T08:23:30.370Z,3.25
2018-06-18T08:26:06.836Z,4.00
2018-06-18T08:28:38.645Z,4.00
2018-06-18T08:31:10.133Z,5.00
2018-06-18T08:33:44.450Z,4.00
2018-06-18T08:36:16.086Z,5.00
2018-06-18T08:38:48.345Z,4.25
2018-06-18T08:41:25.522Z,4.00
2018-06-18T08:43:59.718Z,4.00
2018-06-18T08:46:32.164Z,4.00
2018-06-18T08:49:05.310Z,4.00
2018-06-18T08:51:43.407Z,4.25
2018-06-18T08:54:20.285Z,4.00
2018-06-18T08:56:58.008Z,4.75
2018-06-18T08:59:37.997Z,3.75
2018-06-18T09:02:08.787Z,3.50
2018-06-18T09:04:52.679Z,4.00
2018-06-18T09:07:31.412Z,4.00
2018-06-18T09:10:04.397Z,4.75
2018-06-18T09:12:38.935Z,4.25
2018-06-18T09:15:10.509Z,4.50
2018-06-18T09:17:44.937Z,4.00
2018-06-18T09:20:18.311Z,3.50
2018-06-18T09:22:50.659Z,4.00
2018-06-18T09:25:22.422Z,3.75
2018-06-18T09:28:14.930Z,3.75
2018-06-18T09:30:54.516Z,4.75
2018-06-18T09:33:24.905Z,3.75
2018-06-18T09:35:59.203Z,3.50
2018-06-18T09:38:39.615Z,3.75
2018-06-18T09:41:15.044Z,5.00
2018-06-18T09:43:47.691Z,7.25
2018-06-18T09:46:22.143Z,8.75
2018-06-18T09:49:00.264Z,4.75
2018-06-18T09:51:41.410Z,5.50
2018-06-18T09:54:19.480Z,4.00
2018-06-18T09:56:58.418Z,6.00
2018-06-18T09:59:43.552Z,4.50
2018-06-18T10:02:20.365Z,3.75
2018-06-18T10:05:02.642Z,3.50
2018-06-18T10:07:45.744Z,3.50
2018-06-18T10:10:16.444Z,4.75
2018-06-18T10:12:57.833Z,3.75
2018-06-18T10:15:31.683Z,4.75
2018-06-18T10:18:04.071Z,4.25
2018-06-18T10:23:44.653Z,2.25
2018-06-18T10:26:17.584Z,2.75
2018-06-18T10:28:51.232Z,5.25
2018-06-18T10:31:23.248Z,2.50
2018-06-18T10:34:08.647Z,1.50
2018-06-18T10:36:45.730Z,2.50
2018-06-18T10:39:24.994Z,3.00
2018-06-18T10:42:01.342Z,2.00
2018-06-18T10:44:34.534Z,2.25
2018-06-18T10:47:21.513Z,1.75
2018-06-18T10:50:14.953Z,3.00
2018-06-18T10:52:49.635Z,3.75
2018-06-18T10:55:24.625Z,2.75
2018-06-18T10:58:11.398Z,2.75
2018-06-18T11:01:50.765Z,2.50
2018-06-18T11:04:48.769Z,2.75
2018-06-18T11:07:20.785Z,5.50
2018-06-18T11:09:59.392Z,3.75
2018-06-18T11:12:31.306Z,3.75
2018-06-18T11:15:08.334Z,3.75
2018-06-18T11:20:44.397Z,3.75
2018-06-18T11:23:37.418Z,5.25
2018-06-18T11:26:19.342Z,4.75
2018-06-18T11:31:54.124Z,4.00
2018-06-18T11:34:48.818Z,3.75
2018-06-18T11:37:30.723Z,4.00
2018-06-18T11:40:23.814Z,4.75
2018-06-18T11:43:03.644Z,4.75
2018-06-18T11:45:40.370Z,5.00
2018-06-18T11:48:30.658Z,4.75
2018-06-18T11:51:10.546Z,4.50
2018-06-18T11:53:45.404Z,6.25
2018-06-18T11:56:26.964Z,6.75
2018-06-18T12:02:06.147Z,4.50
2018-06-18T12:04:47.821Z,5.00
2018-06-18T12:07:25.725Z,4.75
2018-06-18T12:10:06.372Z,4.50
2018-06-18T12:55:27.647Z,4.50
2018-06-18T12:58:09.606Z,3.75
2018-06-18T13:00:43.926Z,5.00
2018-06-18T13:03:24.543Z,5.00
2018-06-18T13:05:57.364Z,4.75
2018-06-18T13:08:31.862Z,4.25
2018-06-18T13:14:20.017Z,4.75
2018-06-18T13:16:51.460Z,4.75
2018-06-18T13:19:22.781Z,3.75
2018-06-18T13:22:31.173Z,4.75
2018-06-18T13:25:02.123Z,4.75
2018-06-18T13:27:40.428Z,3.75
2018-06-18T13:30:20.225Z,4.50
2018-06-18T13:33:07.199Z,4.50
2018-06-18T13:35:38.160Z,4.50
2018-06-18T13:38:19.776Z,4.75
2018-06-18T13:43:26.492Z,3.50
2018-06-18T13:48:41.963Z,3.75
2018-06-18T13:51:20.649Z,3.50
2018-06-18T13:53:54.940Z,3.75
2018-06-18T13:56:28.683Z,4.25
2018-06-18T13:59:04.996Z,3.00
2018-06-18T14:01:45.145Z,3.75
2018-06-18T14:04:19.481Z,3.50
2018-06-18T14:06:50.498Z,3.75
2018-06-18T14:09:22.328Z,2.50
2018-06-18T14:11:58.539Z,3.25
2018-06-18T14:14:31.100Z,3.25
2018-06-18T14:17:04.283Z,4.25
2018-06-18T14:19:44.180Z,2.75
2018-06-18T14:22:15.683Z,3.25
2018-06-18T14:24:48.139Z,3.25
2018-06-18T14:27:20.140Z,3.25
2018-06-18T14:30:05.772Z,3.25
2018-06-18T14:32:44.640Z,5.00
2018-06-18T14:35:27.269Z,3.25
2018-06-18T14:38:06.565Z,3.25
2018-06-18T14:40:36.994Z,4.25
2018-06-18T14:43:08.325Z,3.50
2018-06-18T14:45:38.910Z,3.25
2018-06-18T14:48:10.355Z,3.75
2018-06-18T14:50:43.320Z,2.75
2018-06-18T14:53:19.380Z,3.00
2018-06-18T14:55:55.028Z,3.00
2018-06-18T14:58:27.230Z,2.25
2018-06-18T15:00:59.915Z,3.75
2018-06-18T15:03:31.839Z,2.50
2018-06-18T15:06:19.929Z,2.75
2018-06-18T15:08:51.423Z,3.50
2018-06-18T15:11:23.762Z,3.75
2018-06-18T15:13:59.379Z,3.75
2018-06-18T15:16:40.792Z,2.75
2018-06-18T15:19:11.067Z,3.00
2018-06-18T15:21:51.410Z,3.75
2018-06-18T15:24:34.455Z,3.25
2018-06-18T15:27:08.848Z,3.50
2018-06-18T15:29:39.175Z,5.00
2018-06-18T15:32:15.431Z,3.25
2018-06-18T15:37:25.794Z,3.25
2018-06-18T15:39:59.382Z,2.25
2018-06-18T15:42:31.505Z,3.00
2018-06-18T15:45:03.855Z,2.25
2018-06-18T15:47:50.914Z,2.25
2018-06-18T15:50:21.561Z,1.25
2018-06-18T15:52:54.478Z,3.25
2018-06-18T15:55:27.784Z,3.00
2018-06-18T15:57:59.839Z,2.50
2018-06-18T16:00:31.724Z,1.75
2018-06-18T16:03:03.806Z,2.25
2018-06-18T16:05:43.684Z,2.25
2018-06-18T16:08:19.905Z,3.00
2018-06-18T16:10:53.569Z,1.25
2018-06-18T16:13:25.116Z,1.50
2018-06-18T16:15:58.211Z,1.25
2018-06-18T16:18:29.569Z,2.25
2018-06-18T16:21:01.233Z,1.25
2018-06-18T16:23:31.929Z,1.25
2018-06-18T16:26:15.300Z,1.25
2018-06-18T16:28:47.564Z,2.25
2018-06-18T16:31:19.982Z,1.25
2018-06-18T16:33:54.495Z,1.50
2018-06-18T16:36:25.530Z,2.25
2018-06-18T16:38:56.871Z,2.25
2018-06-18T16:41:55.983Z,1.25
2018-06-18T16:44:38.072Z,2.25
2018-06-18T16:47:08.624Z,2.00
2018-06-18T16:49:39.176Z,2.25
2018-06-18T16:52:12.579Z,2.25
2018-06-18T16:54:47.393Z,2.25
2018-06-18T16:57:20.240Z,3.25
2018-06-18T17:02:45.990Z,4.25
2018-06-18T17:05:18.461Z,6.00
2018-06-18T17:07:53.549Z,5.25
2018-06-18T17:10:25.079Z,6.00
2018-06-18T17:13:02.942Z,4.25
2018-06-18T17:15:33.398Z,4.75
2018-06-18T17:18:05.508Z,6.00
2018-06-18T17:20:36.216Z,4.25
2018-06-18T17:23:08.831Z,4.25
2018-06-18T17:25:39.947Z,5.25
2018-06-18T17:28:10.260Z,4.50
2018-06-18T17:30:43.824Z,3.75
2018-06-18T17:33:18.662Z,8.50
2018-06-18T17:35:51.417Z,6.00
2018-06-18T17:38:23.513Z,7.25
2018-06-18T17:41:00.414Z,5.25
2018-06-18T17:43:32.682Z,5.75
2018-06-18T17:46:07.950Z,5.75
2018-06-18T17:48:41.511Z,6.00
2018-06-18T17:51:13.418Z,8.50
2018-06-18T17:53:49.878Z,8.25
2018-06-18T17:56:21.211Z,8.00
2018-06-18T17:58:55.290Z,8.25
2018-06-18T18:01:33.259Z,5.75
2018-06-18T18:04:06.925Z,4.25
2018-06-18T18:06:48.672Z,4.75
2018-06-18T18:09:26.078Z,4.75
2018-06-18T18:12:01.269Z,5.25
2018-06-18T18:14:40.769Z,4.50
2018-06-18T18:17:22.732Z,5.25
2018-06-18T18:20:04.807Z,7.25
2018-06-18T18:22:40.312Z,5.75
2018-06-18T18:25:16.567Z,6.25
2018-06-18T18:27:49.662Z,6.00
2018-06-18T18:30:21.462Z,8.75
2018-06-18T18:32:58.220Z,5.75
2018-06-18T18:35:33.567Z,8.50
2018-06-18T18:38:15.471Z,8.75
2018-06-18T18:41:08.560Z,6.00
2018-06-18T18:43:41.184Z,8.00
2018-06-18T18:46:19.544Z,7.50
2018-06-18T18:51:35.654Z,8.75
2018-06-18T18:54:06.622Z,7.75
2018-06-18T18:56:50.314Z,7.75
2018-06-18T18:59:29.770Z,8.00
2018-06-18T19:02:02.684Z,6.25
2018-06-18T19:04:43.217Z,6.00
2018-06-18T19:07:16.572Z,6.50
2018-06-18T19:09:57.252Z,6.00
2018-06-18T19:12:32.495Z,6.00
2018-06-18T19:15:15.363Z,7.00
2018-06-18T19:17:47.247Z,6.25
2018-06-18T19:20:28.985Z,6.00
2018-06-18T19:23:00.940Z,6.50
2018-06-18T19:25:32.161Z,8.00
2018-06-18T19:28:05.847Z,7.00
2018-06-18T19:30:42.237Z,8.50
2018-06-18T19:35:25.388Z,7.50
2018-06-18T19:41:09.229Z,6.00
2018-06-18T19:43:45.686Z,6.50
2018-06-18T19:48:50.601Z,7.00
2018-06-18T19:51:42.713Z,7.00
2018-06-18T19:54:20.789Z,8.00
2018-06-18T19:56:56.138Z,8.00
2018-06-18T19:59:32.308Z,5.75
2018-06-18T20:02:21.348Z,6.00
2018-06-18T20:04:58.110Z,4.00
2018-06-18T20:07:36.125Z,6.00
2018-06-18T20:12:42.206Z,5.50
2018-06-18T20:23:36.729Z,8.00
2018-06-18T20:26:24.988Z,6.75
2018-06-18T20:29:00.400Z,7.25
2018-06-18T20:31:33.679Z,8.00
2018-06-18T20:34:06.215Z,7.25
2018-06-18T20:39:26.922Z,6.00
2018-06-18T20:42:01.261Z,6.00
2018-06-18T20:44:33.567Z,7.00
2018-06-18T20:47:09.129Z,6.00
2018-06-18T20:49:48.826Z,5.50
2018-06-18T20:52:23.499Z,5.50
2018-06-18T20:55:01.218Z,6.00
2018-06-18T20:57:36.441Z,5.75
2018-06-18T21:00:24.090Z,6.25
2018-06-18T21:03:03.446Z,4.75
2018-06-18T21:05:38.196Z,6.00
2018-06-18T21:08:10.658Z,5.00
2018-06-18T21:10:46.229Z,5.75
2018-06-18T21:13:19.666Z,5.00
2018-06-18T21:16:19.224Z,6.00
2018-06-18T21:18:54.177Z,6.00
2018-06-18T21:21:29.759Z,6.00
2018-06-18T21:24:05.308Z,6.25
2018-06-18T21:26:35.969Z,6.00
2018-06-18T21:29:08.202Z,5.00
2018-06-18T21:31:43.686Z,5.50
2018-06-18T21:34:17.891Z,5.50
2018-06-18T21:36:54.520Z,6.25
2018-06-18T21:39:24.823Z,5.25
2018-06-18T21:41:57.442Z,7.00
2018-06-18T21:45:37.608Z,6.00
2018-06-18T21:48:09.647Z,8.75
2018-06-18T21:50:58.011Z,6.00
2018-06-18T21:53:30.696Z,6.00
2018-06-18T21:56:06.939Z,5.50
2018-06-18T21:58:37.714Z,6.25
2018-06-18T22:01:09.924Z,6.00
2018-06-18T22:03:41.789Z,5.75
2018-06-18T22:06:13.494Z,6.75
2018-06-18T22:08:43.985Z,6.00
2018-06-18T22:11:15.346Z,5.50
2018-06-18T22:13:49.623Z,8.00
2018-06-18T22:16:26.416Z,6.00
2018-06-18T22:18:58.351Z,7.00
2018-06-18T22:21:33.166Z,6.00
2018-06-18T22:24:06.371Z,7.50
2018-06-18T22:26:40.043Z,5.25
2018-06-18T22:29:11.921Z,6.00
2018-06-18T22:31:45.452Z,6.00
2018-06-18T22:34:16.710Z,9.25
2018-06-18T22:39:27.454Z,6.00
2018-06-18T22:41:59.335Z,7.00
2018-06-18T22:44:37.776Z,7.50
2018-06-18T22:47:14.758Z,6.50
2018-06-18T22:49:48.270Z,5.75
2018-06-18T22:52:18.716Z,6.75
2018-06-18T22:54:53.716Z,6.25
2018-06-18T22:57:36.523Z,6.00
2018-06-18T23:00:24.325Z,8.25
2018-06-18T23:02:56.410Z,8.00
2018-06-18T23:05:31.942Z,8.00
2018-06-18T23:08:06.664Z,8.00
2018-06-18T23:10:37.925Z,7.00
2018-06-18T23:13:12.419Z,6.00
2018-06-18T23:15:44.313Z,7.00
2018-06-18T23:18:14.860Z,5.00
2018-06-18T23:20:49.139Z,5.75
2018-06-18T23:23:26.442Z,6.50
2018-06-18T23:25:57.841Z,6.50
2018-06-18T23:28:39.431Z,7.25
2018-06-18T23:31:11.058Z,7.00
2018-06-18T23:33:43.237Z,6.00
2018-06-18T23:36:13.679Z,6.50
2018-06-18T23:38:45.998Z,5.50
2018-06-18T23:41:16.307Z,6.00
2018-06-18T23:43:47.380Z,5.00
2018-06-18T23:46:18.790Z,5.00
2018-06-18T23:48:53.272Z,6.75
2018-06-18T23:51:24.558Z,6.50
2018-06-18T23:53:57.658Z,5.50
2018-06-18T23:56:30.834Z,6.00
2018-06-18T23:59:02.302Z,5.00
